sensor_id;sensor_type;location;lat;lon;timestamp;temperature;humidity
44117;DHT22;29781;49.480;8.512;2022-08-03T00:01:55;24.00;95.70
44117;DHT22;29781;49.480;8.512;2022-08-03T00:04:20;23.90;96.20
44117;DHT22;29781;49.480;8.512;2022-08-03T00:06:46;23.60;97.60
44117;DHT22;29781;49.480;8.512;2022-08-03T00:09:12;23.50;97.30
44117;DHT22;29781;49.480;8.512;2022-08-03T00:11:37;23.40;98.00
44117;DHT22;29781;49.480;8.512;2022-08-03T00:14:05;23.30;99.50
44117;DHT22;29781;49.480;8.512;2022-08-03T00:16:31;22.90;99.90
44117;DHT22;29781;49.480;8.512;2022-08-03T00:18:57;22.50;99.90
44117;DHT22;29781;49.480;8.512;2022-08-03T00:21:22;22.40;99.90
44117;DHT22;29781;49.480;8.512;2022-08-03T00:23:48;22.40;99.90
44117;DHT22;29781;49.480;8.512;2022-08-03T00:26:14;22.30;99.90
44117;DHT22;29781;49.480;8.512;2022-08-03T00:28:39;22.50;99.90
44117;DHT22;29781;49.480;8.512;2022-08-03T00:31:06;22.90;99.90
44117;DHT22;29781;49.480;8.512;2022-08-03T00:33:32;23.10;99.90
44117;DHT22;29781;49.480;8.512;2022-08-03T00:35:57;23.30;99.90
44117;DHT22;29781;49.480;8.512;2022-08-03T00:38:23;23.50;99.90
44117;DHT22;29781;49.480;8.512;2022-08-03T00:40:49;23.30;99.90
44117;DHT22;29781;49.480;8.512;2022-08-03T00:43:14;23.40;99.90
44117;DHT22;29781;49.480;8.512;2022-08-03T00:45:41;23.50;99.80
44117;DHT22;29781;49.480;8.512;2022-08-03T00:48:09;23.50;99.70
44117;DHT22;29781;49.480;8.512;2022-08-03T00:50:38;23.30;99.30
44117;DHT22;29781;49.480;8.512;2022-08-03T00:53:06;23.20;99.90
44117;DHT22;29781;49.480;8.512;2022-08-03T00:55:33;23.10;99.90
44117;DHT22;29781;49.480;8.512;2022-08-03T00:58:01;23.30;99.90
44117;DHT22;29781;49.480;8.512;2022-08-03T01:00:31;23.50;99.90
44117;DHT22;29781;49.480;8.512;2022-08-03T01:02:57;23.40;99.90
44117;DHT22;29781;49.480;8.512;2022-08-03T01:05:22;23.50;99.90
44117;DHT22;29781;49.480;8.512;2022-08-03T01:11:16;23.20;99.90
44117;DHT22;29781;49.480;8.512;2022-08-03T01:14:05;23.00;99.90
44117;DHT22;29781;49.480;8.512;2022-08-03T01:19:43;22.40;99.90
44117;DHT22;29781;49.480;8.512;2022-08-03T01:22:20;21.90;99.90
44117;DHT22;29781;49.480;8.512;2022-08-03T01:25:13;21.60;99.90
44117;DHT22;29781;49.480;8.512;2022-08-03T01:28:14;21.40;99.90
44117;DHT22;29781;49.480;8.512;2022-08-03T01:30:44;21.50;99.90
44117;DHT22;29781;49.480;8.512;2022-08-03T01:33:20;21.80;99.90
44117;DHT22;29781;49.480;8.512;2022-08-03T01:35:56;22.00;99.90
44117;DHT22;29781;49.480;8.512;2022-08-03T01:38:28;22.20;99.90
44117;DHT22;29781;49.480;8.512;2022-08-03T01:40:57;22.30;99.90
44117;DHT22;29781;49.480;8.512;2022-08-03T01:43:27;22.20;99.90
44117;DHT22;29781;49.480;8.512;2022-08-03T01:45:55;22.00;99.90
44117;DHT22;29781;49.480;8.512;2022-08-03T01:48:22;21.90;99.90
44117;DHT22;29781;49.480;8.512;2022-08-03T01:50:49;21.90;99.90
44117;DHT22;29781;49.480;8.512;2022-08-03T01:53:16;21.90;99.90
44117;DHT22;29781;49.480;8.512;2022-08-03T01:55:45;21.80;99.90
44117;DHT22;29781;49.480;8.512;2022-08-03T01:58:14;21.60;99.90
44117;DHT22;29781;49.480;8.512;2022-08-03T02:00:40;21.70;99.90
44117;DHT22;29781;49.480;8.512;2022-08-03T02:03:07;21.90;99.90
44117;DHT22;29781;49.480;8.512;2022-08-03T02:05:35;21.90;99.90
44117;DHT22;29781;49.480;8.512;2022-08-03T02:08:02;21.90;99.90
44117;DHT22;29781;49.480;8.512;2022-08-03T02:10:30;22.00;99.90
44117;DHT22;29781;49.480;8.512;2022-08-03T02:13:00;21.90;99.90
44117;DHT22;29781;49.480;8.512;2022-08-03T02:15:27;21.70;99.90
44117;DHT22;29781;49.480;8.512;2022-08-03T02:17:55;21.60;99.90
44117;DHT22;29781;49.480;8.512;2022-08-03T02:20:23;21.50;99.90
44117;DHT22;29781;49.480;8.512;2022-08-03T02:22:49;21.60;99.90
44117;DHT22;29781;49.480;8.512;2022-08-03T02:25:15;21.70;99.90
44117;DHT22;29781;49.480;8.512;2022-08-03T02:27:51;21.50;99.90
44117;DHT22;29781;49.480;8.512;2022-08-03T02:30:20;21.40;99.90
44117;DHT22;29781;49.480;8.512;2022-08-03T02:32:51;21.50;99.90
44117;DHT22;29781;49.480;8.512;2022-08-03T02:35:20;21.80;99.90
44117;DHT22;29781;49.480;8.512;2022-08-03T02:37:52;22.10;99.90
44117;DHT22;29781;49.480;8.512;2022-08-03T02:40:22;22.30;99.90
44117;DHT22;29781;49.480;8.512;2022-08-03T02:42:50;22.50;99.90
44117;DHT22;29781;49.480;8.512;2022-08-03T02:45:19;22.40;99.90
44117;DHT22;29781;49.480;8.512;2022-08-03T02:47:45;22.00;99.90
44117;DHT22;29781;49.480;8.512;2022-08-03T02:50:13;21.60;99.90
44117;DHT22;29781;49.480;8.512;2022-08-03T02:52:41;21.40;99.90
44117;DHT22;29781;49.480;8.512;2022-08-03T02:55:08;21.40;99.90
44117;DHT22;29781;49.480;8.512;2022-08-03T02:57:36;21.40;99.90
44117;DHT22;29781;49.480;8.512;2022-08-03T03:00:03;21.40;99.90
44117;DHT22;29781;49.480;8.512;2022-08-03T03:02:29;21.60;99.90
44117;DHT22;29781;49.480;8.512;2022-08-03T03:04:55;21.60;99.90
44117;DHT22;29781;49.480;8.512;2022-08-03T03:07:21;21.80;99.90
44117;DHT22;29781;49.480;8.512;2022-08-03T03:09:48;22.20;99.90
44117;DHT22;29781;49.480;8.512;2022-08-03T03:12:14;22.30;99.90
44117;DHT22;29781;49.480;8.512;2022-08-03T03:14:41;22.40;99.90
44117;DHT22;29781;49.480;8.512;2022-08-03T03:17:08;22.00;99.90
44117;DHT22;29781;49.480;8.512;2022-08-03T03:19:34;21.90;99.90
44117;DHT22;29781;49.480;8.512;2022-08-03T03:22:02;22.00;99.90
44117;DHT22;29781;49.480;8.512;2022-08-03T03:24:29;21.80;99.90
44117;DHT22;29781;49.480;8.512;2022-08-03T03:26:56;21.70;99.90
44117;DHT22;29781;49.480;8.512;2022-08-03T03:29:22;21.60;99.90
44117;DHT22;29781;49.480;8.512;2022-08-03T03:31:48;21.50;99.90
44117;DHT22;29781;49.480;8.512;2022-08-03T03:34:14;21.70;99.90
44117;DHT22;29781;49.480;8.512;2022-08-03T03:36:40;21.70;99.90
44117;DHT22;29781;49.480;8.512;2022-08-03T03:39:06;21.90;99.90
44117;DHT22;29781;49.480;8.512;2022-08-03T03:41:32;22.00;99.90
44117;DHT22;29781;49.480;8.512;2022-08-03T03:43:59;22.10;99.90
44117;DHT22;29781;49.480;8.512;2022-08-03T03:46:25;22.00;99.90
44117;DHT22;29781;49.480;8.512;2022-08-03T03:48:51;22.00;99.90
44117;DHT22;29781;49.480;8.512;2022-08-03T03:51:17;21.80;99.90
44117;DHT22;29781;49.480;8.512;2022-08-03T03:53:56;21.60;99.90
44117;DHT22;29781;49.480;8.512;2022-08-03T03:56:22;21.40;99.90
44117;DHT22;29781;49.480;8.512;2022-08-03T03:58:48;21.10;99.90
44117;DHT22;29781;49.480;8.512;2022-08-03T04:01:13;21.20;99.90
44117;DHT22;29781;49.480;8.512;2022-08-03T04:03:39;20.90;99.90
44117;DHT22;29781;49.480;8.512;2022-08-03T04:06:05;20.80;99.90
44117;DHT22;29781;49.480;8.512;2022-08-03T04:08:49;20.80;99.90
44117;DHT22;29781;49.480;8.512;2022-08-03T04:11:46;20.50;99.90
44117;DHT22;29781;49.480;8.512;2022-08-03T04:16:52;20.30;99.90
44117;DHT22;29781;49.480;8.512;2022-08-03T04:19:37;20.40;99.90
44117;DHT22;29781;49.480;8.512;2022-08-03T04:22:09;20.90;99.90
44117;DHT22;29781;49.480;8.512;2022-08-03T04:24:45;21.10;99.90
44117;DHT22;29781;49.480;8.512;2022-08-03T04:27:15;21.30;99.90
44117;DHT22;29781;49.480;8.512;2022-08-03T04:29:47;21.40;99.90
44117;DHT22;29781;49.480;8.512;2022-08-03T04:32:14;21.50;99.90
44117;DHT22;29781;49.480;8.512;2022-08-03T04:34:40;21.60;99.90
44117;DHT22;29781;49.480;8.512;2022-08-03T04:37:11;21.70;99.90
44117;DHT22;29781;49.480;8.512;2022-08-03T04:39:41;21.70;99.90
44117;DHT22;29781;49.480;8.512;2022-08-03T04:42:08;21.60;99.90
44117;DHT22;29781;49.480;8.512;2022-08-03T04:44:39;21.60;99.90
44117;DHT22;29781;49.480;8.512;2022-08-03T04:47:05;21.40;99.90
44117;DHT22;29781;49.480;8.512;2022-08-03T04:49:31;21.50;99.90
44117;DHT22;29781;49.480;8.512;2022-08-03T04:51:57;21.60;99.90
44117;DHT22;29781;49.480;8.512;2022-08-03T04:54:23;21.80;99.90
44117;DHT22;29781;49.480;8.512;2022-08-03T04:56:49;22.00;99.90
44117;DHT22;29781;49.480;8.512;2022-08-03T04:59:15;21.90;99.90
44117;DHT22;29781;49.480;8.512;2022-08-03T05:01:43;22.10;99.90
44117;DHT22;29781;49.480;8.512;2022-08-03T05:04:09;22.20;99.90
44117;DHT22;29781;49.480;8.512;2022-08-03T05:06:34;21.80;99.90
44117;DHT22;29781;49.480;8.512;2022-08-03T05:09:00;21.30;99.90
44117;DHT22;29781;49.480;8.512;2022-08-03T05:11:26;21.10;99.90
44117;DHT22;29781;49.480;8.512;2022-08-03T05:13:52;21.20;99.90
44117;DHT22;29781;49.480;8.512;2022-08-03T05:16:17;21.10;99.90
44117;DHT22;29781;49.480;8.512;2022-08-03T05:18:43;21.20;99.90
44117;DHT22;29781;49.480;8.512;2022-08-03T05:21:10;21.10;99.90
44117;DHT22;29781;49.480;8.512;2022-08-03T05:23:39;21.20;99.90
44117;DHT22;29781;49.480;8.512;2022-08-03T05:26:04;21.30;99.90
44117;DHT22;29781;49.480;8.512;2022-08-03T05:28:30;21.40;99.90
44117;DHT22;29781;49.480;8.512;2022-08-03T05:30:56;21.40;99.90
44117;DHT22;29781;49.480;8.512;2022-08-03T05:33:21;21.40;99.90
44117;DHT22;29781;49.480;8.512;2022-08-03T05:35:47;21.50;99.90
44117;DHT22;29781;49.480;8.512;2022-08-03T05:38:13;21.40;99.90
44117;DHT22;29781;49.480;8.512;2022-08-03T05:40:38;21.50;99.90
44117;DHT22;29781;49.480;8.512;2022-08-03T05:43:04;21.90;99.90
44117;DHT22;29781;49.480;8.512;2022-08-03T05:45:30;22.10;99.90
44117;DHT22;29781;49.480;8.512;2022-08-03T05:47:55;22.20;99.90
44117;DHT22;29781;49.480;8.512;2022-08-03T05:50:21;22.30;99.90
44117;DHT22;29781;49.480;8.512;2022-08-03T05:52:47;22.40;99.90
44117;DHT22;29781;49.480;8.512;2022-08-03T05:55:13;22.50;99.90
44117;DHT22;29781;49.480;8.512;2022-08-03T05:57:39;22.60;99.90
44117;DHT22;29781;49.480;8.512;2022-08-03T06:00:07;22.70;99.90
44117;DHT22;29781;49.480;8.512;2022-08-03T06:02:33;22.70;99.90
44117;DHT22;29781;49.480;8.512;2022-08-03T06:04:59;23.00;99.90
44117;DHT22;29781;49.480;8.512;2022-08-03T06:07:25;23.30;99.90
44117;DHT22;29781;49.480;8.512;2022-08-03T06:09:51;23.70;99.30
44117;DHT22;29781;49.480;8.512;2022-08-03T06:12:16;24.00;98.60
44117;DHT22;29781;49.480;8.512;2022-08-03T06:14:42;24.20;98.00
44117;DHT22;29781;49.480;8.512;2022-08-03T06:17:08;24.00;96.80
44117;DHT22;29781;49.480;8.512;2022-08-03T06:19:33;23.60;97.50
44117;DHT22;29781;49.480;8.512;2022-08-03T06:21:59;23.20;98.10
44117;DHT22;29781;49.480;8.512;2022-08-03T06:24:25;22.90;97.50
44117;DHT22;29781;49.480;8.512;2022-08-03T06:26:50;22.80;96.50
44117;DHT22;29781;49.480;8.512;2022-08-03T06:29:16;22.90;97.00
44117;DHT22;29781;49.480;8.512;2022-08-03T06:31:42;23.10;96.70
44117;DHT22;29781;49.480;8.512;2022-08-03T06:34:07;23.20;96.20
44117;DHT22;29781;49.480;8.512;2022-08-03T06:36:33;23.30;96.60
44117;DHT22;29781;49.480;8.512;2022-08-03T06:38:59;23.40;96.60
44117;DHT22;29781;49.480;8.512;2022-08-03T06:41:26;23.60;96.30
44117;DHT22;29781;49.480;8.512;2022-08-03T06:43:51;23.80;95.70
44117;DHT22;29781;49.480;8.512;2022-08-03T06:46:18;23.60;95.00
44117;DHT22;29781;49.480;8.512;2022-08-03T06:48:44;23.60;95.50
44117;DHT22;29781;49.480;8.512;2022-08-03T06:51:09;23.60;95.80
44117;DHT22;29781;49.480;8.512;2022-08-03T06:53:35;23.70;95.40
44117;DHT22;29781;49.480;8.512;2022-08-03T06:56:01;23.90;95.20
44117;DHT22;29781;49.480;8.512;2022-08-03T06:58:28;24.00;94.00
44117;DHT22;29781;49.480;8.512;2022-08-03T07:00:54;24.10;94.40
44117;DHT22;29781;49.480;8.512;2022-08-03T07:03:19;24.10;94.70
44117;DHT22;29781;49.480;8.512;2022-08-03T07:05:45;24.10;94.30
44117;DHT22;29781;49.480;8.512;2022-08-03T07:08:12;24.20;94.60
44117;DHT22;29781;49.480;8.512;2022-08-03T07:10:38;24.30;94.00
44117;DHT22;29781;49.480;8.512;2022-08-03T07:13:04;24.40;94.30
44117;DHT22;29781;49.480;8.512;2022-08-03T07:15:30;24.50;93.90
44117;DHT22;29781;49.480;8.512;2022-08-03T07:17:56;24.40;93.90
44117;DHT22;29781;49.480;8.512;2022-08-03T07:20:23;24.50;93.90
44117;DHT22;29781;49.480;8.512;2022-08-03T07:22:49;24.70;93.50
44117;DHT22;29781;49.480;8.512;2022-08-03T07:25:14;24.70;93.80
44117;DHT22;29781;49.480;8.512;2022-08-03T07:27:44;24.90;94.00
44117;DHT22;29781;49.480;8.512;2022-08-03T07:30:11;25.00;93.80
44117;DHT22;29781;49.480;8.512;2022-08-03T07:32:37;25.10;93.20
44117;DHT22;29781;49.480;8.512;2022-08-03T07:35:04;25.20;92.70
44117;DHT22;29781;49.480;8.512;2022-08-03T07:37:32;25.20;92.60
44117;DHT22;29781;49.480;8.512;2022-08-03T07:40:02;25.10;92.30
44117;DHT22;29781;49.480;8.512;2022-08-03T07:42:29;25.10;92.70
44117;DHT22;29781;49.480;8.512;2022-08-03T07:44:56;25.30;92.70
44117;DHT22;29781;49.480;8.512;2022-08-03T07:47:28;25.60;92.40
44117;DHT22;29781;49.480;8.512;2022-08-03T07:49:54;26.10;92.30
44117;DHT22;29781;49.480;8.512;2022-08-03T07:52:20;26.50;91.20
44117;DHT22;29781;49.480;8.512;2022-08-03T07:55:06;26.60;90.40
44117;DHT22;29781;49.480;8.512;2022-08-03T07:57:32;26.80;90.20
44117;DHT22;29781;49.480;8.512;2022-08-03T07:59:58;26.60;90.10
44117;DHT22;29781;49.480;8.512;2022-08-03T08:02:24;26.30;89.30
44117;DHT22;29781;49.480;8.512;2022-08-03T08:04:50;26.20;90.10
44117;DHT22;29781;49.480;8.512;2022-08-03T08:07:15;26.30;89.60
44117;DHT22;29781;49.480;8.512;2022-08-03T08:09:41;26.30;89.60
44117;DHT22;29781;49.480;8.512;2022-08-03T08:12:07;26.30;88.40
44117;DHT22;29781;49.480;8.512;2022-08-03T08:14:34;26.30;89.30
44117;DHT22;29781;49.480;8.512;2022-08-03T08:17:00;26.30;88.80
44117;DHT22;29781;49.480;8.512;2022-08-03T08:19:25;26.30;89.30
44117;DHT22;29781;49.480;8.512;2022-08-03T08:21:51;26.40;89.40
44117;DHT22;29781;49.480;8.512;2022-08-03T08:24:17;26.40;88.60
44117;DHT22;29781;49.480;8.512;2022-08-03T08:26:43;26.50;88.70
44117;DHT22;29781;49.480;8.512;2022-08-03T08:29:09;26.60;86.90
44117;DHT22;29781;49.480;8.512;2022-08-03T08:31:35;26.70;87.20
44117;DHT22;29781;49.480;8.512;2022-08-03T08:34:00;26.70;86.50
44117;DHT22;29781;49.480;8.512;2022-08-03T08:36:31;26.70;86.30
44117;DHT22;29781;49.480;8.512;2022-08-03T08:38:57;26.80;86.20
44117;DHT22;29781;49.480;8.512;2022-08-03T08:41:23;27.00;86.20
44117;DHT22;29781;49.480;8.512;2022-08-03T08:43:48;27.40;86.10
44117;DHT22;29781;49.480;8.512;2022-08-03T08:46:15;28.50;84.90
44117;DHT22;29781;49.480;8.512;2022-08-03T08:48:43;29.20;81.50
44117;DHT22;29781;49.480;8.512;2022-08-03T08:51:10;29.20;81.00
44117;DHT22;29781;49.480;8.512;2022-08-03T08:53:40;29.00;80.50
44117;DHT22;29781;49.480;8.512;2022-08-03T08:56:06;28.90;80.80
44117;DHT22;29781;49.480;8.512;2022-08-03T08:58:36;28.40;81.40
44117;DHT22;29781;49.480;8.512;2022-08-03T09:01:03;28.20;81.10
44117;DHT22;29781;49.480;8.512;2022-08-03T09:03:29;28.10;82.00
44117;DHT22;29781;49.480;8.512;2022-08-03T09:06:00;28.10;81.50
44117;DHT22;29781;49.480;8.512;2022-08-03T09:08:28;28.20;81.90
44117;DHT22;29781;49.480;8.512;2022-08-03T09:10:53;28.20;82.40
44117;DHT22;29781;49.480;8.512;2022-08-03T09:13:20;28.30;81.90
44117;DHT22;29781;49.480;8.512;2022-08-03T09:15:45;28.30;81.80
44117;DHT22;29781;49.480;8.512;2022-08-03T09:18:11;28.40;81.90
44117;DHT22;29781;49.480;8.512;2022-08-03T09:20:38;28.50;81.30
44117;DHT22;29781;49.480;8.512;2022-08-03T09:23:06;28.50;80.80
44117;DHT22;29781;49.480;8.512;2022-08-03T09:25:37;28.50;80.70
44117;DHT22;29781;49.480;8.512;2022-08-03T09:28:15;28.50;81.30
44117;DHT22;29781;49.480;8.512;2022-08-03T09:30:44;28.50;80.00
44117;DHT22;29781;49.480;8.512;2022-08-03T09:33:12;28.60;79.70
44117;DHT22;29781;49.480;8.512;2022-08-03T09:35:40;28.70;80.20
44117;DHT22;29781;49.480;8.512;2022-08-03T09:38:21;28.90;80.70
44117;DHT22;29781;49.480;8.512;2022-08-03T09:40:54;29.30;78.60
44117;DHT22;29781;49.480;8.512;2022-08-03T09:43:20;29.60;77.60
44117;DHT22;29781;49.480;8.512;2022-08-03T09:45:46;29.80;77.70
44117;DHT22;29781;49.480;8.512;2022-08-03T09:48:30;30.00;77.00
44117;DHT22;29781;49.480;8.512;2022-08-03T09:51:00;30.20;76.40
44117;DHT22;29781;49.480;8.512;2022-08-03T09:53:27;30.10;76.40
44117;DHT22;29781;49.480;8.512;2022-08-03T09:58:23;29.80;75.10
44117;DHT22;29781;49.480;8.512;2022-08-03T10:01:05;30.00;75.60
44117;DHT22;29781;49.480;8.512;2022-08-03T10:03:34;30.00;75.90
44117;DHT22;29781;49.480;8.512;2022-08-03T10:06:14;30.00;76.50
44117;DHT22;29781;49.480;8.512;2022-08-03T10:08:40;30.10;76.10
44117;DHT22;29781;49.480;8.512;2022-08-03T10:11:06;30.00;75.30
44117;DHT22;29781;49.480;8.512;2022-08-03T10:13:32;29.90;75.90
44117;DHT22;29781;49.480;8.512;2022-08-03T10:15:58;29.80;76.00
44117;DHT22;29781;49.480;8.512;2022-08-03T10:18:24;29.90;76.80
44117;DHT22;29781;49.480;8.512;2022-08-03T10:20:54;29.90;76.10
44117;DHT22;29781;49.480;8.512;2022-08-03T10:23:23;29.90;76.60
44117;DHT22;29781;49.480;8.512;2022-08-03T10:25:57;30.00;75.60
44117;DHT22;29781;49.480;8.512;2022-08-03T10:28:32;30.00;76.10
44117;DHT22;29781;49.480;8.512;2022-08-03T10:30:59;30.00;76.40
44117;DHT22;29781;49.480;8.512;2022-08-03T10:33:27;30.10;76.10
44117;DHT22;29781;49.480;8.512;2022-08-03T10:35:56;30.20;76.10
44117;DHT22;29781;49.480;8.512;2022-08-03T10:38:43;30.30;75.40
44117;DHT22;29781;49.480;8.512;2022-08-03T10:41:12;30.20;75.70
44117;DHT22;29781;49.480;8.512;2022-08-03T10:43:46;30.10;75.70
44117;DHT22;29781;49.480;8.512;2022-08-03T10:46:16;30.00;76.20
44117;DHT22;29781;49.480;8.512;2022-08-03T10:48:43;30.00;76.20
44117;DHT22;29781;49.480;8.512;2022-08-03T10:51:10;30.00;76.50
44117;DHT22;29781;49.480;8.512;2022-08-03T10:53:41;30.20;76.20
44117;DHT22;29781;49.480;8.512;2022-08-03T10:59:18;30.40;76.20
44117;DHT22;29781;49.480;8.512;2022-08-03T11:04:18;30.40;76.80
44117;DHT22;29781;49.480;8.512;2022-08-03T11:06:44;30.40;77.00
44117;DHT22;29781;49.480;8.512;2022-08-03T11:11:37;30.30;77.90
44117;DHT22;29781;49.480;8.512;2022-08-03T11:16:48;30.40;78.20
44117;DHT22;29781;49.480;8.512;2022-08-03T11:19:18;30.50;78.10
44117;DHT22;29781;49.480;8.512;2022-08-03T11:27:17;31.00;77.80
44117;DHT22;29781;49.480;8.512;2022-08-03T11:30:22;31.10;77.80
44117;DHT22;29781;49.480;8.512;2022-08-03T11:32:51;31.40;76.90
44117;DHT22;29781;49.480;8.512;2022-08-03T11:35:29;31.40;76.50
44117;DHT22;29781;49.480;8.512;2022-08-03T11:40:47;32.20;75.00
44117;DHT22;29781;49.480;8.512;2022-08-03T11:46:10;32.20;74.70
44117;DHT22;29781;49.480;8.512;2022-08-03T11:48:45;31.90;74.90
44117;DHT22;29781;49.480;8.512;2022-08-03T11:51:37;31.80;75.20
44117;DHT22;29781;49.480;8.512;2022-08-03T11:54:06;31.70;74.40
44117;DHT22;29781;49.480;8.512;2022-08-03T11:56:46;31.60;74.40
44117;DHT22;29781;49.480;8.512;2022-08-03T11:59:13;31.70;73.60
44117;DHT22;29781;49.480;8.512;2022-08-03T12:01:38;31.80;72.80
44117;DHT22;29781;49.480;8.512;2022-08-03T12:04:05;31.70;73.50
44117;DHT22;29781;49.480;8.512;2022-08-03T12:06:31;31.80;74.30
44117;DHT22;29781;49.480;8.512;2022-08-03T12:09:19;31.70;74.80
44117;DHT22;29781;49.480;8.512;2022-08-03T12:11:49;31.80;74.10
44117;DHT22;29781;49.480;8.512;2022-08-03T12:14:18;31.80;72.90
44117;DHT22;29781;49.480;8.512;2022-08-03T12:16:48;31.80;72.50
44117;DHT22;29781;49.480;8.512;2022-08-03T12:19:14;31.90;72.10
44117;DHT22;29781;49.480;8.512;2022-08-03T12:21:47;31.90;72.00
44117;DHT22;29781;49.480;8.512;2022-08-03T12:24:13;32.00;72.40
44117;DHT22;29781;49.480;8.512;2022-08-03T12:26:47;31.70;72.60
44117;DHT22;29781;49.480;8.512;2022-08-03T12:29:20;31.70;72.80
44117;DHT22;29781;49.480;8.512;2022-08-03T12:31:48;31.70;71.60
44117;DHT22;29781;49.480;8.512;2022-08-03T12:34:14;31.80;71.40
44117;DHT22;29781;49.480;8.512;2022-08-03T12:36:58;31.80;72.10
44117;DHT22;29781;49.480;8.512;2022-08-03T12:39:29;31.90;72.30
44117;DHT22;29781;49.480;8.512;2022-08-03T12:41:55;31.90;72.70
44117;DHT22;29781;49.480;8.512;2022-08-03T12:44:34;32.00;72.10
44117;DHT22;29781;49.480;8.512;2022-08-03T12:47:02;31.90;72.10
44117;DHT22;29781;49.480;8.512;2022-08-03T12:49:28;31.90;72.40
44117;DHT22;29781;49.480;8.512;2022-08-03T12:52:08;31.90;72.70
44117;DHT22;29781;49.480;8.512;2022-08-03T12:54:34;31.90;72.10
44117;DHT22;29781;49.480;8.512;2022-08-03T12:57:01;31.90;72.40
44117;DHT22;29781;49.480;8.512;2022-08-03T12:59:32;32.00;71.90
44117;DHT22;29781;49.480;8.512;2022-08-03T13:01:58;32.10;71.60
44117;DHT22;29781;49.480;8.512;2022-08-03T13:04:32;32.30;71.50
44117;DHT22;29781;49.480;8.512;2022-08-03T13:07:00;32.30;70.80
44117;DHT22;29781;49.480;8.512;2022-08-03T13:12:11;32.60;71.10
44117;DHT22;29781;49.480;8.512;2022-08-03T13:14:38;32.50;71.00
44117;DHT22;29781;49.480;8.512;2022-08-03T13:17:17;32.50;70.70
44117;DHT22;29781;49.480;8.512;2022-08-03T13:19:44;32.60;71.60
44117;DHT22;29781;49.480;8.512;2022-08-03T13:22:17;32.70;70.50
44117;DHT22;29781;49.480;8.512;2022-08-03T13:24:46;32.70;70.70
44117;DHT22;29781;49.480;8.512;2022-08-03T13:27:13;32.70;71.40
44117;DHT22;29781;49.480;8.512;2022-08-03T13:29:42;32.70;71.20
44117;DHT22;29781;49.480;8.512;2022-08-03T13:32:09;32.70;69.90
44117;DHT22;29781;49.480;8.512;2022-08-03T13:34:36;32.70;71.40
44117;DHT22;29781;49.480;8.512;2022-08-03T13:37:03;32.60;70.70
44117;DHT22;29781;49.480;8.512;2022-08-03T13:39:28;32.60;70.70
44117;DHT22;29781;49.480;8.512;2022-08-03T13:41:54;32.60;70.60
44117;DHT22;29781;49.480;8.512;2022-08-03T13:44:20;32.70;70.60
44117;DHT22;29781;49.480;8.512;2022-08-03T13:46:46;32.60;70.20
44117;DHT22;29781;49.480;8.512;2022-08-03T13:49:12;32.80;69.40
44117;DHT22;29781;49.480;8.512;2022-08-03T13:51:37;32.90;69.80
44117;DHT22;29781;49.480;8.512;2022-08-03T13:54:03;32.90;70.00
44117;DHT22;29781;49.480;8.512;2022-08-03T13:56:37;32.80;69.30
44117;DHT22;29781;49.480;8.512;2022-08-03T13:59:02;32.80;69.20
44117;DHT22;29781;49.480;8.512;2022-08-03T14:01:28;32.80;70.60
44117;DHT22;29781;49.480;8.512;2022-08-03T14:03:54;32.80;69.20
44117;DHT22;29781;49.480;8.512;2022-08-03T14:06:22;32.80;69.50
44117;DHT22;29781;49.480;8.512;2022-08-03T14:08:48;32.90;68.80
44117;DHT22;29781;49.480;8.512;2022-08-03T14:11:15;32.90;69.20
44117;DHT22;29781;49.480;8.512;2022-08-03T14:13:41;32.80;68.80
44117;DHT22;29781;49.480;8.512;2022-08-03T14:16:07;32.80;68.80
44117;DHT22;29781;49.480;8.512;2022-08-03T14:18:33;32.90;69.00
44117;DHT22;29781;49.480;8.512;2022-08-03T14:20:59;32.90;68.40
44117;DHT22;29781;49.480;8.512;2022-08-03T14:23:25;32.90;68.10
44117;DHT22;29781;49.480;8.512;2022-08-03T14:25:51;32.90;68.50
44117;DHT22;29781;49.480;8.512;2022-08-03T14:28:18;33.10;68.30
44117;DHT22;29781;49.480;8.512;2022-08-03T14:30:44;33.10;68.30
44117;DHT22;29781;49.480;8.512;2022-08-03T14:33:09;33.10;68.00
44117;DHT22;29781;49.480;8.512;2022-08-03T14:35:35;33.10;67.60
44117;DHT22;29781;49.480;8.512;2022-08-03T14:38:01;33.20;67.10
44117;DHT22;29781;49.480;8.512;2022-08-03T14:40:27;33.30;67.70
44117;DHT22;29781;49.480;8.512;2022-08-03T14:42:52;33.40;66.60
44117;DHT22;29781;49.480;8.512;2022-08-03T14:45:18;33.40;67.30
44117;DHT22;29781;49.480;8.512;2022-08-03T14:47:44;33.30;67.50
44117;DHT22;29781;49.480;8.512;2022-08-03T14:50:09;33.40;67.10
44117;DHT22;29781;49.480;8.512;2022-08-03T14:52:35;33.30;66.80
44117;DHT22;29781;49.480;8.512;2022-08-03T14:55:01;33.30;66.20
44117;DHT22;29781;49.480;8.512;2022-08-03T14:57:27;33.20;65.80
44117;DHT22;29781;49.480;8.512;2022-08-03T14:59:52;33.30;65.90
44117;DHT22;29781;49.480;8.512;2022-08-03T15:02:18;33.30;66.60
44117;DHT22;29781;49.480;8.512;2022-08-03T15:04:45;33.30;66.70
44117;DHT22;29781;49.480;8.512;2022-08-03T15:07:11;33.20;66.70
44117;DHT22;29781;49.480;8.512;2022-08-03T15:09:36;33.40;65.90
44117;DHT22;29781;49.480;8.512;2022-08-03T15:12:11;33.40;65.10
44117;DHT22;29781;49.480;8.512;2022-08-03T15:14:37;33.40;65.60
44117;DHT22;29781;49.480;8.512;2022-08-03T15:17:03;33.40;65.10
44117;DHT22;29781;49.480;8.512;2022-08-03T15:19:29;33.50;65.10
44117;DHT22;29781;49.480;8.512;2022-08-03T15:21:54;33.40;65.50
44117;DHT22;29781;49.480;8.512;2022-08-03T15:24:32;33.40;65.90
44117;DHT22;29781;49.480;8.512;2022-08-03T15:26:58;33.40;65.90
44117;DHT22;29781;49.480;8.512;2022-08-03T15:29:23;33.60;66.90
44117;DHT22;29781;49.480;8.512;2022-08-03T15:31:49;33.60;66.00
44117;DHT22;29781;49.480;8.512;2022-08-03T15:34:15;33.60;65.40
44117;DHT22;29781;49.480;8.512;2022-08-03T15:36:40;33.60;66.20
44117;DHT22;29781;49.480;8.512;2022-08-03T15:39:06;33.60;65.20
44117;DHT22;29781;49.480;8.512;2022-08-03T15:41:32;33.60;65.10
44117;DHT22;29781;49.480;8.512;2022-08-03T15:43:57;33.60;64.70
44117;DHT22;29781;49.480;8.512;2022-08-03T15:46:23;33.60;64.10
44117;DHT22;29781;49.480;8.512;2022-08-03T15:48:49;33.60;63.90
44117;DHT22;29781;49.480;8.512;2022-08-03T15:51:14;33.50;63.80
44117;DHT22;29781;49.480;8.512;2022-08-03T15:53:40;33.60;63.50
44117;DHT22;29781;49.480;8.512;2022-08-03T15:56:06;33.70;63.90
44117;DHT22;29781;49.480;8.512;2022-08-03T15:58:34;33.70;63.90
44117;DHT22;29781;49.480;8.512;2022-08-03T16:01:01;33.50;63.10
44117;DHT22;29781;49.480;8.512;2022-08-03T16:03:27;33.50;63.30
44117;DHT22;29781;49.480;8.512;2022-08-03T16:05:59;33.50;63.70
44117;DHT22;29781;49.480;8.512;2022-08-03T16:08:34;33.50;64.80
44117;DHT22;29781;49.480;8.512;2022-08-03T16:11:00;33.60;63.30
44117;DHT22;29781;49.480;8.512;2022-08-03T16:13:26;33.50;63.40